createdAt,value
2022-10-21T00:01:44.368Z,70.95
2022-10-21T00:13:52.680Z,70.92
2022-10-21T00:25:03.841Z,71.11
2022-10-21T00:46:17.790Z,71.02
2022-10-21T01:02:11.914Z,70.78
2022-10-21T01:45:51.300Z,71.96
2022-10-21T02:07:02.034Z,72.32
2022-10-21T02:17:40.077Z,72.35
2022-10-21T02:20:36.918Z,72.54
2022-10-21T02:27:40.056Z,72.49
2022-10-21T02:30:10.640Z,72.65
2022-10-21T02:37:33.136Z,72.49
2022-10-21T02:49:20.511Z,72.43
2022-10-21T03:06:04.753Z,73.20
2022-10-21T03:13:46.106Z,73.57
2022-10-21T03:21:06.820Z,73.67
2022-10-21T03:47:37.145Z,74.76
2022-10-21T03:50:54.155Z,75.18
2022-10-21T04:34:11.436Z,74.34
2022-10-21T04:46:22.918Z,74.23
2022-10-21T04:48:53.056Z,74.24
2022-10-21T05:01:02.067Z,74.64
2022-10-21T05:08:42.352Z,74.69
2022-10-21T05:16:02.269Z,75.49
2022-10-21T05:28:29.605Z,75.74
2022-10-21T05:45:12.647Z,76.69
2022-10-21T06:10:17.522Z,78.10
2022-10-21T06:17:10.685Z,78.36
2022-10-21T06:20:28.407Z,78.58
2022-10-21T06:27:46.206Z,79.00
2022-10-21T06:43:42.512Z,79.06
2022-10-21T06:55:08.925Z,79.08
2022-10-21T06:58:42.680Z,78.88
2022-10-21T07:02:10.670Z,78.73
2022-10-21T07:22:46.240Z,76.51
2022-10-21T07:30:06.690Z,73.28
2022-10-21T07:32:41.388Z,72.77
2022-10-21T07:35:12.543Z,72.20
2022-10-21T07:37:47.289Z,72.89
2022-10-21T07:40:59.039Z,73.07
2022-10-21T08:01:39.813Z,74.18
2022-10-21T08:04:53.116Z,74.10
2022-10-21T08:08:07.426Z,74.21
2022-10-21T08:10:40.784Z,74.34
2022-10-21T08:13:09.344Z,74.27
2022-10-21T08:15:42.401Z,74.13
2022-10-21T08:18:25.369Z,74.11
2022-10-21T08:20:54.509Z,74.22
2022-10-21T08:23:25.793Z,74.19
2022-10-21T08:25:56.389Z,74.01
2022-10-21T08:28:26.432Z,74.25
2022-10-21T08:31:03.617Z,74.57
2022-10-21T08:33:33.889Z,74.76
2022-10-21T08:36:05.175Z,72.88
2022-10-21T08:38:34.593Z,70.29
2022-10-21T08:41:11.476Z,70.32
2022-10-21T08:43:40.326Z,69.49
2022-10-21T08:46:53.463Z,69.74
2022-10-21T08:49:29.940Z,69.89
2022-10-21T08:52:04.309Z,70.22
2022-10-21T08:54:42.480Z,69.55
2022-10-21T08:57:12.634Z,69.44
2022-10-21T08:59:42.069Z,69.86
2022-10-21T09:02:27.007Z,68.44
2022-10-21T09:08:03.260Z,66.80
2022-10-21T09:10:46.220Z,66.32
2022-10-21T09:13:25.560Z,66.77
2022-10-21T09:16:03.434Z,66.62
2022-10-21T09:18:44.028Z,66.94
2022-10-21T09:21:25.521Z,67.31
2022-10-21T09:24:03.278Z,67.66
2022-10-21T09:26:38.257Z,67.71
2022-10-21T09:29:26.309Z,67.81
2022-10-21T09:32:02.387Z,67.98
2022-10-21T09:34:44.028Z,67.84
2022-10-21T09:37:20.364Z,67.78
2022-10-21T09:39:54.048Z,67.86
2022-10-21T09:42:45.802Z,67.87
2022-10-21T09:45:21.578Z,68.26
2022-10-21T09:47:56.514Z,68.22
2022-10-21T09:50:25.936Z,68.41
2022-10-21T09:53:00.339Z,68.56
2022-10-21T09:55:31.429Z,68.54
2022-10-21T09:58:01.408Z,68.66
2022-10-21T10:00:48.328Z,68.92
2022-10-21T10:03:34.941Z,68.85
2022-10-21T10:06:06.455Z,68.85
2022-10-21T10:08:40.139Z,69.01
2022-10-21T10:11:18.145Z,68.79
2022-10-21T10:13:48.759Z,68.95
2022-10-21T10:16:29.488Z,69.21
2022-10-21T10:19:15.919Z,69.33
2022-10-21T10:21:44.666Z,69.39
2022-10-21T10:24:18.747Z,69.32
2022-10-21T10:26:48.583Z,69.03
2022-10-21T10:29:25.957Z,69.05
2022-10-21T10:31:57.562Z,68.88
2022-10-21T10:34:32.026Z,68.73
2022-10-21T10:37:04.477Z,68.41
2022-10-21T10:39:38.563Z,68.22
2022-10-21T10:42:08.012Z,68.27
2022-10-21T10:44:40.438Z,68.00
2022-10-21T10:47:19.885Z,67.45
2022-10-21T10:49:50.754Z,67.47
2022-10-21T10:52:23.672Z,67.08
2022-10-21T10:55:15.843Z,67.31
2022-10-21T10:57:58.849Z,67.02
2022-10-21T11:00:39.936Z,66.98
2022-10-21T11:03:15.685Z,67.24
2022-10-21T11:05:47.346Z,67.24
2022-10-21T11:09:07.819Z,67.06
2022-10-21T11:11:40.556Z,66.98
2022-10-21T11:14:16.359Z,66.25
2022-10-21T11:17:08.996Z,65.92
2022-10-21T11:19:48.343Z,66.04
2022-10-21T11:22:30.442Z,66.34
2022-10-21T11:25:09.610Z,65.42
2022-10-21T11:27:49.925Z,65.10
2022-10-21T11:30:21.300Z,64.70
2022-10-21T11:33:10.043Z,63.93
2022-10-21T11:35:53.041Z,63.88
2022-10-21T11:38:50.747Z,63.30
2022-10-21T11:41:30.578Z,63.37
2022-10-21T11:44:11.420Z,63.44
2022-10-21T11:46:51.005Z,62.89
2022-10-21T11:49:37.289Z,62.73
2022-10-21T11:52:16.172Z,62.60
2022-10-21T11:55:17.992Z,61.91
2022-10-21T11:57:54.505Z,61.73
2022-10-21T12:00:25.524Z,61.06
2022-10-21T12:03:24.869Z,61.30
2022-10-21T12:06:01.108Z,60.92
2022-10-21T12:08:39.662Z,60.00
2022-10-21T12:11:16.871Z,59.31
2022-10-21T12:13:50.811Z,58.61
2022-10-21T12:16:24.465Z,58.49
2022-10-21T12:18:56.410Z,58.28
2022-10-21T12:21:28.597Z,58.81
2022-10-21T12:24:04.419Z,58.44
2022-10-21T12:26:41.645Z,58.83
2022-10-21T12:29:20.163Z,59.09
2022-10-21T12:31:56.022Z,59.09
2022-10-21T12:34:25.070Z,59.20
2022-10-21T12:36:54.521Z,58.55
2022-10-21T12:39:50.495Z,57.78
2022-10-21T12:42:25.027Z,56.44
2022-10-21T12:44:53.703Z,55.84
2022-10-21T12:47:29.448Z,56.08
2022-10-21T12:50:17.406Z,56.34
2022-10-21T12:52:55.523Z,56.70
2022-10-21T12:55:28.435Z,56.37
2022-10-21T12:58:01.142Z,56.39
2022-10-21T13:00:55.864Z,56.64
2022-10-21T13:03:52.323Z,57.21
2022-10-21T13:06:52.765Z,56.87
2022-10-21T13:09:42.542Z,56.87
2022-10-21T13:12:26.149Z,56.90
2022-10-21T13:14:55.476Z,57.12
2022-10-21T13:17:49.707Z,57.47
2022-10-21T13:20:47.070Z,57.59
2022-10-21T13:23:38.628Z,57.78
2022-10-21T13:26:15.627Z,57.83
2022-10-21T13:29:00.712Z,57.80
2022-10-21T13:31:29.573Z,57.95
2022-10-21T13:33:58.527Z,58.01
2022-10-21T13:39:20.252Z,58.49
2022-10-21T13:41:58.509Z,58.59
2022-10-21T13:44:32.058Z,58.82
2022-10-21T13:47:20.309Z,59.14
2022-10-21T13:49:55.523Z,59.39
2022-10-21T13:52:28.502Z,59.63
2022-10-21T13:55:01.658Z,59.92
2022-10-21T13:57:32.351Z,60.30
2022-10-21T14:00:02.268Z,60.34
2022-10-21T14:02:33.396Z,60.38
2022-10-21T14:05:01.995Z,60.62
2022-10-21T14:07:32.171Z,60.83
2022-10-21T14:10:00.977Z,60.82
2022-10-21T14:13:23.054Z,61.05
2022-10-21T14:15:52.401Z,61.19
2022-10-21T14:18:33.586Z,61.23
2022-10-21T14:21:07.854Z,61.45
2022-10-21T14:23:36.547Z,61.53
2022-10-21T14:26:08.740Z,61.69
2022-10-21T14:28:37.840Z,61.84
2022-10-21T14:31:11.237Z,62.04
2022-10-21T14:33:42.807Z,62.36
2022-10-21T14:36:15.450Z,62.42
2022-10-21T14:38:51.625Z,62.50
2022-10-21T14:41:24.299Z,62.70
2022-10-21T14:44:36.320Z,62.84
2022-10-21T14:47:18.711Z,63.02
2022-10-21T14:49:49.612Z,63.23
2022-10-21T14:52:21.556Z,63.39
2022-10-21T14:54:55.485Z,63.37
2022-10-21T14:57:37.522Z,63.57
2022-10-21T15:00:25.100Z,63.85
2022-10-21T15:02:58.127Z,63.91
2022-10-21T15:05:48.848Z,64.15
2022-10-21T15:08:35.402Z,64.23
2022-10-21T15:11:34.854Z,64.32
2022-10-21T15:14:20.012Z,64.42
2022-10-21T15:16:51.415Z,64.62
2022-10-21T15:19:23.393Z,64.80
2022-10-21T15:21:57.771Z,64.85
2022-10-21T15:24:42.475Z,65.05
2022-10-21T15:27:24.797Z,65.12
2022-10-21T15:29:54.014Z,65.46
2022-10-21T15:32:24.479Z,65.44
2022-10-21T15:34:55.596Z,65.57
2022-10-21T15:37:24.162Z,65.58
2022-10-21T15:39:55.571Z,65.66
2022-10-21T15:42:26.804Z,65.83
2022-10-21T15:44:55.556Z,66.12
2022-10-21T15:47:24.373Z,66.26
2022-10-21T15:49:55.374Z,66.47
2022-10-21T15:52:24.028Z,66.56
2022-10-21T15:54:54.433Z,66.70
2022-10-21T15:57:22.327Z,66.76
2022-10-21T15:59:51.004Z,67.05
2022-10-21T16:02:19.562Z,67.27
2022-10-21T16:04:51.056Z,67.38
2022-10-21T16:07:22.273Z,67.67
2022-10-21T16:09:50.826Z,67.75
2022-10-21T16:12:21.812Z,68.20
2022-10-21T16:14:50.402Z,68.01
2022-10-21T16:17:20.204Z,68.25
2022-10-21T16:19:48.736Z,68.48
2022-10-21T16:22:21.291Z,68.68
2022-10-21T16:24:49.867Z,68.98
2022-10-21T16:27:31.117Z,68.94
2022-10-21T16:30:16.017Z,69.09
2022-10-21T16:32:44.661Z,69.20
2022-10-21T16:35:15.360Z,69.30
2022-10-21T16:37:44.349Z,69.24
2022-10-21T16:40:18.621Z,69.44
2022-10-21T16:42:47.663Z,69.48
2022-10-21T16:45:17.355Z,69.46
2022-10-21T16:47:52.070Z,69.75
2022-10-21T16:50:26.160Z,69.95
2022-10-21T16:52:56.572Z,69.96
2022-10-21T16:55:24.369Z,69.90
2022-10-21T16:57:52.947Z,69.95
2022-10-21T17:00:22.255Z,70.02
2022-10-21T17:02:53.615Z,70.05
2022-10-21T17:05:25.083Z,70.04
2022-10-21T17:07:54.558Z,70.33
2022-10-21T17:10:23.141Z,70.20
2022-10-21T17:12:58.001Z,69.92
2022-10-21T17:15:27.623Z,70.20
2022-10-21T17:17:56.180Z,70.19
2022-10-21T17:20:29.615Z,70.19
2022-10-21T17:22:58.853Z,70.06
2022-10-21T17:25:31.151Z,70.25
2022-10-21T17:27:59.824Z,70.19
2022-10-21T17:30:28.435Z,70.05
2022-10-21T17:32:56.997Z,70.00
2022-10-21T17:35:25.853Z,70.05
2022-10-21T17:37:54.859Z,69.95
2022-10-21T17:40:26.322Z,69.90
2022-10-21T17:42:54.945Z,69.93
2022-10-21T17:45:23.827Z,69.86
2022-10-21T17:47:53.003Z,69.99
2022-10-21T17:50:23.312Z,69.83
2022-10-21T17:52:52.986Z,69.88
2022-10-21T17:55:21.743Z,69.83
2022-10-21T17:57:50.320Z,69.78
2022-10-21T18:00:19.703Z,69.68
2022-10-21T18:02:49.202Z,69.52
2022-10-21T18:05:17.999Z,69.75
2022-10-21T18:07:47.431Z,69.79
2022-10-21T18:10:16.675Z,69.72
2022-10-21T18:12:45.671Z,69.79
2022-10-21T18:15:14.233Z,69.56
2022-10-21T18:17:43.329Z,69.59
2022-10-21T18:20:13.273Z,69.67
2022-10-21T18:22:45.046Z,69.59
2022-10-21T18:25:16.605Z,69.59
2022-10-21T18:27:45.263Z,69.58
2022-10-21T18:30:18.037Z,69.43
2022-10-21T18:32:46.732Z,69.51
2022-10-21T18:35:15.886Z,69.66
2022-10-21T18:37:44.486Z,69.78
2022-10-21T18:40:13.641Z,69.66
2022-10-21T18:42:42.174Z,69.87
2022-10-21T18:45:11.577Z,70.19
2022-10-21T18:47:40.927Z,70.27
2022-10-21T18:50:11.875Z,70.44
2022-10-21T18:52:40.501Z,70.62
2022-10-21T18:55:09.923Z,70.79
2022-10-21T18:57:41.392Z,71.21
2022-10-21T19:00:11.402Z,71.52
2022-10-21T19:02:40.795Z,71.74
2022-10-21T19:05:09.936Z,72.00
2022-10-21T19:07:39.699Z,72.56
2022-10-21T19:10:08.898Z,72.99
2022-10-21T19:12:37.671Z,73.39
2022-10-21T19:15:08.352Z,73.49
2022-10-21T19:17:39.090Z,73.85
2022-10-21T19:20:09.872Z,74.41
2022-10-21T19:22:41.392Z,74.47
2022-10-21T19:25:13.764Z,74.94
2022-10-21T19:27:42.484Z,75.15
2022-10-21T19:30:12.150Z,75.25
2022-10-21T19:32:41.018Z,75.61
2022-10-21T19:35:11.422Z,76.01
2022-10-21T19:37:40.006Z,76.52
2022-10-21T19:40:09.920Z,76.84
2022-10-21T19:42:40.460Z,76.88
2022-10-21T19:45:13.727Z,76.93
2022-10-21T19:47:42.499Z,77.46
2022-10-21T19:52:45.351Z,78.24
2022-10-21T19:55:13.973Z,77.89
2022-10-21T19:57:42.974Z,78.65
2022-10-21T20:00:13.347Z,78.74
2022-10-21T20:02:43.562Z,78.53
2022-10-21T20:05:12.166Z,78.60
2022-10-21T20:07:41.333Z,79.17
2022-10-21T20:10:10.774Z,78.84
2022-10-21T20:12:39.657Z,79.27
2022-10-21T20:15:11.386Z,79.74
2022-10-21T20:17:40.377Z,79.73
2022-10-21T20:20:09.692Z,79.47
2022-10-21T20:22:38.784Z,79.42
2022-10-21T20:25:09.196Z,79.51
2022-10-21T20:27:38.254Z,79.75
2022-10-21T20:30:09.001Z,79.72
2022-10-21T20:32:36.705Z,79.94
2022-10-21T20:35:07.905Z,79.82
2022-10-21T20:37:39.704Z,80.02
2022-10-21T20:40:09.732Z,80.34
2022-10-21T20:42:38.303Z,80.33
2022-10-21T20:45:08.638Z,80.22
2022-10-21T20:47:37.212Z,80.25
2022-10-21T20:50:07.065Z,80.31
2022-10-21T20:52:35.696Z,80.36
2022-10-21T20:55:05.006Z,80.41
2022-10-21T20:57:36.531Z,80.61
2022-10-21T21:00:06.670Z,80.26
2022-10-21T21:02:35.790Z,80.40
2022-10-21T21:05:05.716Z,80.45
2022-10-21T21:07:34.296Z,80.63
2022-10-21T21:10:03.924Z,80.30
2022-10-21T21:12:32.603Z,80.24
2022-10-21T21:15:03.141Z,80.23
2022-10-21T21:17:30.841Z,80.04
2022-10-21T21:19:59.344Z,80.04
2022-10-21T21:22:28.089Z,80.32
2022-10-21T21:24:56.608Z,80.06
2022-10-21T21:27:25.201Z,80.11
2022-10-21T21:29:54.122Z,80.19
2022-10-21T21:32:23.010Z,80.06
2022-10-21T21:34:56.329Z,79.88
2022-10-21T21:37:27.620Z,79.84
2022-10-21T21:39:56.580Z,79.72
2022-10-21T21:42:25.148Z,79.75
2022-10-21T21:44:53.754Z,79.86
2022-10-21T21:47:22.340Z,79.65
2022-10-21T21:49:51.074Z,79.77
2022-10-21T21:52:21.005Z,79.76
2022-10-21T21:54:53.759Z,79.56
2022-10-21T21:57:27.791Z,79.58
2022-10-21T21:59:56.641Z,79.48
2022-10-21T22:02:25.193Z,79.34
2022-10-21T22:04:53.671Z,79.06
2022-10-21T22:07:22.111Z,79.20
2022-10-21T22:09:53.111Z,79.23
2022-10-21T22:12:23.218Z,79.28
2022-10-21T22:14:51.965Z,79.19
2022-10-21T22:17:20.676Z,79.03
2022-10-21T22:19:52.982Z,79.04
2022-10-21T22:22:22.815Z,79.06
2022-10-21T22:24:53.929Z,78.90
2022-10-21T22:27:22.541Z,78.85
2022-10-21T22:29:51.265Z,78.81
2022-10-21T22:32:20.010Z,78.89
2022-10-21T22:34:50.268Z,78.98
2022-10-21T22:37:18.945Z,78.77
2022-10-21T22:39:47.601Z,78.83
2022-10-21T22:42:16.237Z,78.82
2022-10-21T22:44:44.924Z,78.89
2022-10-21T22:47:13.764Z,78.74
2022-10-21T22:49:43.050Z,78.75
2022-10-21T22:52:11.628Z,78.82
2022-10-21T22:54:50.244Z,78.73
2022-10-21T22:57:19.185Z,78.65
2022-10-21T22:59:52.925Z,78.58
2022-10-21T23:02:22.970Z,78.53
2022-10-21T23:04:51.589Z,78.56
2022-10-21T23:07:20.156Z,78.58
2022-10-21T23:09:50.739Z,78.54
2022-10-21T23:12:19.381Z,78.45
2022-10-21T23:14:48.020Z,78.31
2022-10-21T23:17:16.593Z,78.17
2022-10-21T23:19:45.481Z,78.15
2022-10-21T23:22:14.312Z,78.20
2022-10-21T23:24:42.939Z,78.08
2022-10-21T23:27:11.740Z,78.10
2022-10-21T23:29:40.448Z,78.02
2022-10-21T23:32:09.044Z,78.06
2022-10-21T23:34:37.559Z,78.08
2022-10-21T23:37:06.291Z,77.86
2022-10-21T23:39:35.385Z,77.99
2022-10-21T23:42:05.137Z,78.15
2022-10-21T23:44:33.906Z,78.02
2022-10-21T23:47:02.716Z,77.88
2022-10-21T23:49:31.375Z,77.81
2022-10-21T23:52:00.980Z,78.03
2022-10-21T23:54:30.627Z,77.91
2022-10-21T23:56:59.250Z,77.99
2022-10-21T23:59:27.772Z,77.87
